Time;durP1;ratioP1;P1;durP2;ratioP2;P2;SDS_P1;SDS_P2;PMS_P1;PMS_P2;Temp;Humidity;BMP_temperature;BMP_pressure;BME280_temperature;BME280_humidity;BME280_pressure;Samples;Min_cycle;Max_cycle;Signal;HPM_P1;HPM_P2
2021/09/06 00:02:07;;;;;;;14.15;9.00;;;13.50;99.90;;;12.02;93.80;101827.69;2569175;30;138368;-41
2021/09/06 00:04:37;;;;;;;14.80;9.07;;;13.50;99.90;;;11.98;93.77;101824.44;2567245;30;137568;-39
2021/09/06 00:07:04;;;;;;;17.23;10.00;;;13.40;99.90;;;11.93;94.11;101813.25;2568582;30;138093;-40
2021/09/06 00:09:33;;;;;;;16.23;9.43;;;13.40;99.90;;;11.90;94.33;101819.97;2570075;30;137474;-42
2021/09/06 00:12:01;;;;;;;16.60;9.75;;;13.40;99.90;;;11.91;94.25;101829.84;2569494;30;137882;-40
2021/09/06 00:14:29;;;;;;;14.77;8.73;;;13.40;99.90;;;11.91;94.25;101829.84;2569981;30;137410;-40
2021/09/06 00:16:56;;;;;;;16.58;9.00;;;13.40;99.90;;;11.90;94.09;101830.06;2569815;30;137374;-40
2021/09/06 00:19:25;;;;;;;15.43;9.52;;;13.40;99.90;;;11.88;94.35;101832.16;2568982;30;137482;-40
2021/09/06 00:21:53;;;;;;;15.13;9.15;;;13.30;99.90;;;11.89;94.60;101833.84;2569843;30;138602;-40
2021/09/06 00:24:21;;;;;;;16.27;8.88;;;13.40;99.90;;;11.84;94.43;101833.59;2567709;30;137060;-42
2021/09/06 00:26:49;;;;;;;15.13;8.90;;;13.30;99.90;;;11.83;93.92;101838.19;2572043;30;138675;-39
2021/09/06 00:29:16;;;;;;;16.48;9.00;;;13.30;99.90;;;11.78;94.02;101837.94;2567590;30;138651;-40
2021/09/06 00:31:43;;;;;;;15.55;9.38;;;13.20;99.90;;;11.76;94.03;101834.56;2571633;30;139729;-40
2021/09/06 00:34:12;;;;;;;18.17;10.07;;;13.20;99.90;;;11.72;94.17;101833.28;2568697;30;139236;-40
2021/09/06 00:36:39;;;;;;;;;;;13.20;99.90;;;11.74;94.53;101828.44;2569028;30;138856;-40
2021/09/06 00:39:07;;;;;;;16.73;9.15;;;13.20;99.90;;;11.73;94.82;101834.97;2569363;30;136941;-40
2021/09/06 00:41:35;;;;;;;;;;;13.20;99.90;;;11.74;95.73;101837.47;2569077;30;141041;-40
2021/09/06 00:44:05;;;;;;;17.15;9.15;;;13.20;99.90;;;11.73;95.68;101846.72;2568709;30;139646;-39
2021/09/06 00:46:33;;;;;;;15.07;8.75;;;13.20;99.90;;;11.69;95.49;101850.06;2566443;30;139311;-39
2021/09/06 00:49:00;;;;;;;15.88;9.38;;;13.20;99.90;;;11.63;95.30;101852.50;2567298;30;137413;-42
2021/09/06 00:51:28;;;;;;;13.30;8.27;;;13.10;99.90;;;11.61;95.07;101843.66;2568341;30;138236;-39
2021/09/06 00:53:55;;;;;;;14.90;8.80;;;13.10;99.90;;;11.60;95.10;101846.59;2566783;30;136818;-39
2021/09/06 00:56:23;;;;;;;;;;;13.00;99.90;;;11.56;95.25;101842.56;2567960;30;137411;-39
2021/09/06 00:58:52;;;;;;;17.95;8.80;;;13.00;99.90;;;11.53;94.96;101838.34;2567679;30;138431;-40
2021/09/06 01:01:20;;;;;;;;;;;13.00;99.90;;;11.51;94.92;101834.94;2568402;30;138443;-40
2021/09/06 01:03:48;;;;;;;15.63;9.13;;;13.00;99.90;;;11.49;94.86;101834.31;2567576;30;136992;-39
2021/09/06 01:06:44;;;;;;;13.88;8.55;;;13.00;99.90;;;11.50;95.30;101825.06;2568319;30;138134;-40
2021/09/06 01:09:43;;;;;;;13.30;7.93;;;12.90;99.90;;;11.50;95.60;101833.25;2568084;30;136836;-41
2021/09/06 01:12:39;;;;;;;15.00;8.27;;;12.90;99.90;;;11.49;95.56;101840.59;2566551;30;137101;-40
2021/09/06 01:15:08;;;;;;;13.43;7.82;;;12.90;99.90;;;11.48;95.58;101833.44;2566868;30;137197;-39
2021/09/06 01:17:40;;;;;;;15.60;7.78;;;12.90;99.90;;;11.48;95.45;101835.34;2566151;30;140353;-39
2021/09/06 01:20:12;;;;;;;17.70;8.75;;;13.00;99.90;;;11.47;95.43;101837.22;2568196;30;138552;-40
2021/09/06 01:22:46;;;;;;;13.85;8.15;;;12.90;99.90;;;11.42;95.27;101826.03;2568457;30;139043;-40
2021/09/06 01:25:18;;;;;;;14.73;8.18;;;12.90;99.90;;;11.36;95.29;101830.38;2567565;30;139069;-40
2021/09/06 01:27:48;;;;;;;13.07;7.93;;;12.80;99.90;;;11.32;95.52;101837.25;2567674;30;139133;-40
2021/09/06 01:30:21;;;;;;;15.02;8.35;;;12.80;99.90;;;11.31;95.30;101837.47;2567415;30;137406;-40
2021/09/06 01:32:48;;;;;;;13.15;8.23;;;12.80;99.90;;;11.28;95.31;101835.97;2567118;30;138475;-41
2021/09/06 01:35:16;;;;;;;14.52;8.43;;;12.80;99.90;;;11.28;95.63;101835.97;2566651;30;137823;-41
2021/09/06 01:37:51;;;;;;;14.77;8.65;;;12.70;99.90;;;11.28;95.56;101835.13;2565861;30;140044;-39
2021/09/06 01:40:20;;;;;;;14.32;8.40;;;12.80;99.90;;;11.29;95.91;101840.38;2568309;30;138829;-40
2021/09/06 01:42:48;;;;;;;16.50;8.60;;;12.80;99.90;;;11.27;95.94;101841.59;2568913;30;140194;-39
2021/09/06 01:45:19;;;;;;;13.48;7.60;;;12.80;99.90;;;11.24;95.90;101842.84;2567283;30;138467;-41
2021/09/06 01:47:48;;;;;;;14.63;8.55;;;12.70;99.90;;;11.22;95.65;101842.19;2567211;30;140386;-40
2021/09/06 01:50:16;;;;;;;14.50;7.88;;;12.70;99.90;;;11.18;95.65;101838.16;2568743;30;138715;-39
2021/09/06 01:52:53;;;;;;;14.55;8.35;;;12.70;99.90;;;11.11;95.59;101840.81;2568293;30;139322;-40
2021/09/06 01:55:21;;;;;;;14.80;8.13;;;12.60;99.90;;;11.10;95.70;101843.72;2566971;30;137462;-39
2021/09/06 01:57:56;;;;;;;14.52;7.93;;;12.60;99.90;;;11.05;95.76;101845.13;2567622;30;139448;-39
2021/09/06 02:00:24;;;;;;;;;;;12.50;99.90;;;11.02;95.63;101845.53;2567778;30;137611;-39
2021/09/06 02:02:52;;;;;;;13.98;8.30;;;12.50;99.90;;;10.98;95.77;101849.69;2568162;30;137233;-42
2021/09/06 02:05:28;;;;;;;14.68;8.23;;;12.50;99.90;;;10.98;95.73;101849.69;2567548;30;138683;-39
2021/09/06 02:07:56;;;;;;;14.13;8.13;;;12.50;99.90;;;10.96;95.82;101850.88;2567506;30;138414;-39
2021/09/06 02:10:24;;;;;;;13.23;7.78;;;12.40;99.90;;;10.92;95.69;101850.44;2566511;30;137615;-41
2021/09/06 02:12:54;;;;;;;12.77;7.90;;;12.40;99.90;;;10.90;95.67;101849.78;2567483;30;139816;-40
2021/09/06 02:15:22;;;;;;;13.15;8.10;;;12.40;99.90;;;10.87;95.67;101851.00;2564422;38;137740;-39
2021/09/06 02:17:51;;;;;;;15.05;8.55;;;12.40;99.90;;;10.86;95.58;101851.19;2566155;30;138153;-40
2021/09/06 02:20:18;;;;;;;17.88;8.38;;;12.30;99.90;;;10.86;95.90;101852.03;2566140;30;139583;-39
2021/09/06 02:22:46;;;;;;;14.07;8.07;;;12.40;99.90;;;10.88;96.19;101854.59;2567465;30;140642;-40
2021/09/06 02:25:13;;;;;;;14.38;7.60;;;12.30;99.90;;;10.88;96.47;101851.88;2566843;30;137211;-40
2021/09/06 02:27:41;;;;;;;14.57;8.07;;;12.40;99.90;;;10.86;96.36;101841.13;2567502;30;138604;-40
2021/09/06 02:30:15;;;;;;;12.90;7.28;;;12.40;99.90;;;10.86;96.55;101848.44;2566617;30;139611;-39
2021/09/06 02:32:43;;;;;;;12.52;7.80;;;12.40;99.90;;;10.87;96.77;101858.34;2565059;30;138220;-39
2021/09/06 02:35:14;;;;;;;14.60;8.20;;;12.40;99.90;;;10.84;97.14;101843.19;2567813;30;137360;-39
2021/09/06 02:37:42;;;;;;;16.17;7.90;;;12.40;99.90;;;10.86;97.13;101851.19;2567701;30;137477;-39
2021/09/06 02:40:16;;;;;;;14.70;8.10;;;12.40;99.90;;;10.83;96.87;101848.81;2563901;30;138401;-39
2021/09/06 02:42:47;;;;;;;14.73;8.38;;;12.30;99.90;;;10.81;96.54;101853.63;2569027;30;139709;-39
2021/09/06 02:45:16;;;;;;;11.75;7.22;;;12.30;99.90;;;10.76;96.30;101856.94;2566354;30;138296;-39
2021/09/06 02:47:49;;;;;;;13.85;7.47;;;12.30;99.90;;;10.73;96.26;101846.38;2567682;30;139880;-39
2021/09/06 02:50:18;;;;;;;13.80;8.00;;;12.20;99.90;;;10.69;96.13;101843.19;2567135;30;137463;-39
2021/09/06 02:52:48;;;;;;;13.88;8.02;;;12.20;99.90;;;10.67;96.13;101848.00;2567230;30;140541;-39
2021/09/06 02:55:17;;;;;;;15.77;8.63;;;12.20;99.90;;;10.69;96.71;101851.38;2565689;30;139537;-39
2021/09/06 02:57:47;;;;;;;14.02;8.18;;;12.20;99.90;;;10.69;96.92;101851.38;2568876;30;139468;-40
2021/09/06 03:00:17;;;;;;;13.38;7.85;;;12.20;99.90;;;10.64;96.73;101845.66;2568421;30;139829;-42
2021/09/06 03:02:45;;;;;;;13.93;8.38;;;12.10;99.90;;;10.59;96.65;101850.81;2567905;30;139984;-39
2021/09/06 03:05:13;;;;;;;13.75;8.00;;;12.10;99.90;;;10.52;96.70;101839.81;2569125;30;138296;-39
2021/09/06 03:07:47;;;;;;;13.93;8.25;;;12.00;99.90;;;10.47;96.52;101834.91;2567060;30;139462;-41
2021/09/06 03:10:15;;;;;;;13.43;8.35;;;12.00;99.90;;;10.47;96.77;101839.50;2566651;30;137212;-39
2021/09/06 03:12:43;;;;;;;;;;;12.00;99.90;;;10.41;96.65;101840.25;2567632;30;138338;-39
2021/09/06 03:15:11;;;;;;;15.48;7.85;;;11.90;99.90;;;10.39;96.55;101843.16;2567684;30;139554;-40
2021/09/06 03:17:39;;;;;;;15.43;8.73;;;11.90;99.90;;;10.38;96.68;101844.19;2568063;30;138579;-39
2021/09/06 03:20:12;;;;;;;14.73;7.97;;;11.90;99.90;;;10.36;96.87;101843.53;2566886;30;137569;-40
2021/09/06 03:22:40;;;;;;;14.90;8.00;;;11.90;99.90;;;10.35;97.12;101837.22;2569015;30;139541;-39
2021/09/06 03:25:08;;;;;;;;;;;11.90;99.90;;;10.34;96.85;101842.84;2567686;30;137541;-39
2021/09/06 03:27:36;;;;;;;17.35;8.60;;;11.80;99.90;;;10.30;96.83;101845.13;2567664;30;139698;-39
2021/09/06 03:30:06;;;;;;;14.00;8.25;;;11.80;99.90;;;10.25;96.70;101844.84;2567273;30;137369;-39
2021/09/06 03:32:35;;;;;;;14.45;7.97;;;11.80;99.90;;;10.22;96.92;101840.59;2566981;30;139931;-40
2021/09/06 03:35:03;;;;;;;14.93;8.57;;;11.70;99.90;;;10.19;97.03;101835.50;2566681;30;139862;-41
2021/09/06 03:37:34;;;;;;;12.88;8.07;;;11.70;99.90;;;10.17;96.93;101848.47;2567029;30;139267;-39
2021/09/06 03:40:06;;;;;;;15.73;8.60;;;11.70;99.90;;;10.12;97.04;101845.47;2567953;30;138869;-41
2021/09/06 03:42:34;;;;;;;15.18;8.00;;;11.70;99.90;;;10.11;96.96;101853.81;2568487;30;139869;-39
2021/09/06 03:45:02;;;;;;;;;;;11.60;99.90;;;10.11;97.28;101851.09;2567656;30;139383;-42
2021/09/06 03:47:31;;;;;;;17.45;8.70;;;11.60;99.90;;;10.07;97.31;101847.88;2568459;30;138334;-41
2021/09/06 03:50:01;;;;;;;14.13;8.00;;;11.60;99.90;;;10.04;97.25;101848.25;2567589;30;140346;-42
2021/09/06 03:52:33;;;;;;;14.38;7.97;;;11.60;99.90;;;10.01;97.03;101848.63;2567768;30;139103;-44
2021/09/06 03:55:00;;;;;;;14.50;8.50;;;11.50;99.90;;;9.98;97.02;101849.84;2567644;30;139424;-41
2021/09/06 03:57:29;;;;;;;15.23;8.13;;;11.50;99.90;;;9.96;97.08;101851.91;2565329;30;140484;-41
2021/09/06 03:59:56;;;;;;;12.98;7.93;;;11.50;99.90;;;9.93;97.11;101853.13;2567416;30;139320;-41
2021/09/06 04:02:24;;;;;;;14.15;8.63;;;11.50;99.90;;;9.95;97.36;101850.22;2566105;30;140859;-41
2021/09/06 04:04:55;;;;;;;16.20;8.55;;;11.50;99.90;;;9.93;97.35;101853.13;2564862;30;137468;-41
2021/09/06 04:07:22;;;;;;;16.77;8.05;;;11.50;99.90;;;9.89;97.37;101851.78;2567348;30;139824;-41
2021/09/06 04:09:55;;;;;;;17.48;9.25;;;11.40;99.90;;;9.86;97.23;101863.06;2568838;30;138254;-40
2021/09/06 04:12:22;;;;;;;16.73;9.10;;;11.40;99.90;;;9.86;97.46;101860.34;2568629;30;137357;-41
2021/09/06 04:14:51;;;;;;;17.85;8.98;;;11.40;99.90;;;9.88;98.09;101866.44;2568067;30;138042;-44
2021/09/06 04:17:19;;;;;;;15.27;8.95;;;11.40;99.90;;;9.83;97.91;101870.75;2567820;30;139646;-41
2021/09/06 04:19:46;;;;;;;;;;;11.40;99.90;;;9.79;97.80;101870.25;2568138;30;139690;-41
2021/09/06 04:22:14;;;;;;;14.20;7.88;;;11.30;99.90;;;9.76;97.23;101876.06;2568925;30;139689;-42
2021/09/06 04:24:45;;;;;;;15.48;8.38;;;11.30;99.90;;;9.73;97.37;101871.84;2566349;30;139597;-41
2021/09/06 04:27:14;;;;;;;14.75;8.57;;;11.30;99.90;;;9.71;97.41;101871.19;2567074;30;137396;-42
2021/09/06 04:29:42;;;;;;;16.35;8.85;;;11.30;99.90;;;9.72;97.62;101878.31;2567923;30;138662;-40
2021/09/06 04:32:10;;;;;;;13.90;8.18;;;11.30;99.90;;;9.69;97.57;101878.69;2568726;30;137377;-41
2021/09/06 04:34:38;;;;;;;15.60;8.60;;;11.20;99.90;;;9.67;97.55;101880.72;2566844;30;137543;-41
2021/09/06 04:37:07;;;;;;;15.80;8.55;;;11.20;99.90;;;9.69;98.18;101877.81;2567507;30;138544;-41
2021/09/06 04:39:40;;;;;;;14.20;8.30;;;11.20;99.90;;;9.67;98.12;101879.88;2567091;30;140035;-41
2021/09/06 04:42:08;;;;;;;;;;;11.20;99.90;;;9.62;97.48;101878.56;2567835;30;139813;-41
2021/09/06 04:44:36;;;;;;;14.13;8.70;;;11.20;99.90;;;9.59;97.65;101887.09;2568116;30;138145;-41
2021/09/06 04:47:06;;;;;;;15.65;8.40;;;11.10;99.90;;;9.60;97.77;101891.50;2566747;30;139302;-42
2021/09/06 04:49:34;;;;;;;15.48;8.02;;;11.20;99.90;;;9.62;98.14;101891.31;2567045;30;139243;-43
2021/09/06 04:52:04;;;;;;;15.43;8.18;;;11.10;99.90;;;9.61;98.29;101889.63;2565445;30;139657;-41
2021/09/06 04:54:32;;;;;;;17.25;8.23;;;11.10;99.90;;;9.59;98.33;101892.53;2566316;30;138278;-41
2021/09/06 04:56:59;;;;;;;;;;;11.10;99.90;;;9.55;98.13;101887.63;2567899;30;139347;-41
2021/09/06 04:59:27;;;;;;;14.18;7.80;;;11.10;99.90;;;9.54;97.94;101891.38;2568288;30;139248;-41
2021/09/06 05:01:55;;;;;;;13.13;7.60;;;11.10;99.90;;;9.53;97.93;101885.06;2568081;30;137732;-41
2021/09/06 05:04:22;;;;;;;;;;;11.10;99.90;;;9.53;97.98;101893.25;2567755;30;139041;-41
2021/09/06 05:06:50;;;;;;;14.13;7.93;;;11.10;99.90;;;9.50;97.87;101896.31;2568534;30;138295;-41
2021/09/06 05:09:19;;;;;;;13.98;7.85;;;11.00;99.90;;;9.48;97.78;101903.81;2567651;30;138962;-41
2021/09/06 05:11:51;;;;;;;17.75;8.65;;;11.00;99.90;;;9.55;97.85;101906.69;2568405;30;139048;-41
2021/09/06 05:14:19;;;;;;;14.57;8.27;;;11.10;99.90;;;9.54;97.97;101907.72;2567738;30;138943;-41
2021/09/06 05:16:47;;;;;;;13.85;7.80;;;11.10;99.90;;;9.53;97.93;101916.94;2569226;30;139008;-42
2021/09/06 05:19:15;;;;;;;15.50;8.52;;;11.10;99.90;;;9.54;98.17;101914.00;2567091;30;139006;-41
2021/09/06 05:21:43;;;;;;;15.93;8.32;;;11.10;99.90;;;9.54;97.97;101915.91;2567248;30;137250;-42
2021/09/06 05:24:11;;;;;;;15.30;8.77;;;11.00;99.90;;;9.54;98.10;101919.44;2567819;30;137236;-41
2021/09/06 05:26:38;;;;;;;17.08;9.13;;;11.10;99.90;;;9.59;98.33;101917.06;2567208;30;140665;-41
2021/09/06 05:29:06;;;;;;;15.00;8.25;;;11.10;99.90;;;9.63;98.60;101915.69;2566439;30;139031;-40
2021/09/06 05:31:34;;;;;;;16.35;8.88;;;11.10;99.90;;;9.65;98.54;101915.47;2568281;30;138058;-41
2021/09/06 05:34:01;;;;;;;17.48;9.07;;;11.10;99.90;;;9.70;98.49;101914.94;2567678;30;136816;-41
2021/09/06 05:36:29;;;;;;;15.93;8.57;;;11.20;99.90;;;9.73;98.71;101918.16;2566934;30;139755;-41
2021/09/06 05:38:58;;;;;;;17.58;10.02;;;11.20;99.90;;;9.79;98.96;101922.03;2567843;30;138507;-41
2021/09/06 05:41:41;;;;;;;15.05;8.68;;;11.30;99.90;;;9.84;99.08;101918.78;2568169;30;139061;-40
2021/09/06 05:44:09;;;;;;;16.25;8.98;;;11.30;99.90;;;9.91;99.60;101919.75;2565942;30;137356;-40
2021/09/06 05:46:40;;;;;;;15.02;8.55;;;11.30;99.90;;;9.97;99.62;101919.03;2568314;30;137472;-43
2021/09/06 05:49:10;;;;;;;16.05;8.95;;;11.40;99.90;;;10.02;99.66;101922.06;2566865;30;137460;-41
2021/09/06 05:51:40;;;;;;;15.18;9.05;;;11.40;99.90;;;10.07;99.71;101918.75;2567077;30;138687;-40
2021/09/06 05:54:14;;;;;;;14.07;8.45;;;11.50;99.90;;;10.13;99.57;101917.19;2566568;30;137444;-41
2021/09/06 05:56:42;;;;;;;15.35;9.13;;;11.50;99.90;;;10.20;99.99;101919.00;2567790;30;137258;-40
2021/09/06 05:59:09;;;;;;;17.38;9.20;;;11.60;99.90;;;10.29;99.91;101922.53;2567872;30;138093;-41
2021/09/06 06:01:39;;;;;;;16.17;8.93;;;11.70;99.90;;;10.37;99.95;101929.78;2566197;30;139490;-41
2021/09/06 06:04:07;;;;;;;14.73;8.38;;;11.70;99.90;;;10.46;100.00;101934.16;2567596;30;139085;-42
2021/09/06 06:06:37;;;;;;;16.50;8.73;;;11.80;99.90;;;10.54;100.00;101929.66;2567852;30;141030;-42
2021/09/06 06:09:05;;;;;;;16.23;9.27;;;11.90;99.90;;;10.63;100.00;101926.66;2567325;30;137679;-42
2021/09/06 06:11:38;;;;;;;15.68;9.20;;;12.00;99.90;;;10.72;100.00;101930.16;2566057;30;139534;-41
2021/09/06 06:14:14;;;;;;;;;;;12.10;99.90;;;10.83;99.93;101933.47;2567709;30;138478;-41
2021/09/06 06:16:45;;;;;;;18.17;9.32;;;12.20;99.90;;;10.95;100.00;101926.50;2567884;30;139550;-41
2021/09/06 06:19:13;;;;;;;15.82;9.30;;;12.30;99.90;;;11.07;100.00;101932.34;2567759;30;138976;-41
2021/09/06 06:22:10;;;;;;;17.05;9.52;;;12.40;99.90;;;11.19;99.99;101930.00;2566732;30;137516;-41
2021/09/06 06:24:56;;;;;;;19.20;10.70;;;12.50;99.90;;;11.32;100.00;101927.41;2567783;30;136948;-41
2021/09/06 06:27:33;;;;;;;21.40;11.15;;;12.60;99.90;;;11.49;100.00;101936.25;2568063;30;139870;-41
2021/09/06 06:30:04;;;;;;;17.23;10.63;;;12.70;99.90;;;11.62;100.00;101938.28;2567474;30;138544;-41
2021/09/06 06:32:31;;;;;;;20.08;10.88;;;12.80;99.90;;;11.73;100.00;101936.09;2567933;30;137189;-41
2021/09/06 06:35:16;;;;;;;20.75;11.52;;;13.00;99.90;;;11.89;100.00;101935.84;2563751;30;138386;-41
2021/09/06 06:37:44;;;;;;;20.30;11.25;;;13.10;99.90;;;11.93;100.00;101928.97;2568000;30;139877;-41
2021/09/06 06:40:13;;;;;;;23.25;13.63;;;13.20;99.90;;;12.16;100.00;101938.06;2567122;30;138956;-41
2021/09/06 06:42:42;;;;;;;23.63;12.77;;;13.30;99.90;;;12.33;100.00;101941.34;2568357;30;140062;-41
2021/09/06 06:45:13;;;;;;;22.90;13.45;;;13.50;99.90;;;12.47;100.00;101943.19;2574556;30;137472;-39
2021/09/06 06:47:43;;;;;;;25.63;14.07;;;13.60;99.90;;;12.72;100.00;101959.13;2567820;30;140184;-39
2021/09/06 06:50:11;;;;;;;;;;;13.80;99.90;;;12.92;100.00;101961.19;2571173;30;138902;-39
2021/09/06 06:52:40;;;;;;;23.92;13.73;;;14.00;99.90;;;13.12;100.00;101953.06;2569044;30;140535;-39
2021/09/06 06:55:08;;;;;;;27.10;14.20;;;14.20;99.90;;;13.36;100.00;101959.97;2570383;30;138250;-40
2021/09/06 06:57:37;;;;;;;27.20;15.18;;;14.40;99.90;;;13.56;100.00;101953.75;2571355;30;140705;-40
2021/09/06 07:00:07;;;;;;;23.58;13.70;;;14.60;99.90;;;13.77;100.00;101965.63;2568581;30;139118;-39
2021/09/06 07:02:37;;;;;;;28.83;15.85;;;14.70;99.90;;;13.95;99.57;101963.16;2567243;30;139376;-40
2021/09/06 07:05:09;;;;;;;27.05;15.95;;;14.90;99.90;;;14.17;98.71;101967.63;2568756;30;138647;-40
2021/09/06 07:07:41;;;;;;;26.63;15.10;;;15.10;99.90;;;14.35;98.28;101967.03;2568940;30;137396;-40
2021/09/06 07:10:10;;;;;;;26.77;15.18;;;15.30;99.90;;;14.55;97.34;101969.78;2568206;30;139036;-39
2021/09/06 07:12:39;;;;;;;28.23;15.38;;;15.40;99.90;;;14.75;95.94;101968.97;2567205;30;140092;-40
2021/09/06 07:15:09;;;;;;;25.13;15.02;;;15.60;99.90;;;14.94;94.83;101980.97;2567148;30;137330;-39
2021/09/06 07:17:38;;;;;;;24.70;14.50;;;15.80;99.90;;;15.16;94.27;101977.97;2567212;30;138572;-40
2021/09/06 07:20:07;;;;;;;24.90;14.27;;;16.00;99.90;;;15.36;93.32;101981.50;2566374;30;138602;-40
2021/09/06 07:22:36;;;;;;;26.52;14.40;;;16.20;99.90;;;15.56;92.82;101977.81;2568990;30;141156;-38
2021/09/06 07:25:04;;;;;;;24.08;15.02;;;16.40;99.90;;;15.78;93.17;101991.28;2569660;30;136626;-40
2021/09/06 07:27:32;;;;;;;27.27;15.20;;;16.60;99.90;;;15.95;91.55;101987.00;2567927;30;139370;-40
2021/09/06 07:30:00;;;;;;;26.80;15.27;;;16.70;99.90;;;16.14;91.56;101992.56;2568101;30;137491;-40
2021/09/06 07:32:28;;;;;;;28.08;14.90;;;16.90;99.90;;;16.32;91.63;101997.34;2564793;30;141046;-40
2021/09/06 07:34:55;;;;;;;24.60;15.77;;;17.10;99.90;;;16.43;88.86;102003.19;2568138;30;137788;-39
2021/09/06 07:37:26;;;;;;;25.60;15.40;;;17.20;99.90;;;16.57;88.54;101993.75;2567166;30;141365;-40
2021/09/06 07:39:54;;;;;;;26.35;15.50;;;17.30;99.90;;;16.74;88.60;101995.94;2569760;30;139833;-40
2021/09/06 07:42:22;;;;;;;25.80;15.45;;;17.50;99.90;;;16.89;88.51;102006.63;2570346;30;138233;-39
2021/09/06 07:44:50;;;;;;;31.27;15.88;;;17.60;99.90;;;17.03;87.79;102004.63;2570173;30;138953;-40
2021/09/06 07:47:18;;;;;;;26.42;15.63;;;17.80;99.90;;;17.20;87.64;102013.13;2569583;30;140303;-40
2021/09/06 07:49:48;;;;;;;28.88;16.05;;;18.00;99.90;;;17.35;86.26;102010.00;2568849;30;139692;-40
2021/09/06 07:52:16;;;;;;;27.67;15.90;;;18.10;99.90;;;17.48;86.10;102009.88;2567863;30;140404;-40
2021/09/06 07:54:44;;;;;;;27.30;15.40;;;18.20;99.90;;;17.63;86.43;102009.47;2569218;30;136723;-40
2021/09/06 07:57:11;;;;;;;27.42;15.48;;;18.30;99.90;;;17.78;85.37;102013.75;2569742;30;138370;-40
2021/09/06 07:59:39;;;;;;;29.88;17.10;;;18.50;99.90;;;17.87;84.98;102015.13;2569225;30;136912;-40
2021/09/06 08:02:10;;;;;;;31.48;15.95;;;18.60;99.90;;;17.96;82.04;102019.22;2569906;30;139197;-40
2021/09/06 08:04:45;;;;;;;24.52;15.07;;;18.70;99.90;;;18.10;82.44;102019.09;2565892;30;139004;-40
2021/09/06 08:07:12;;;;;;;25.90;15.43;;;18.80;99.90;;;18.24;81.83;102020.56;2568613;30;138361;-40
2021/09/06 08:09:40;;;;;;;27.42;15.93;;;19.00;99.90;;;18.34;81.63;102025.53;2568887;30;136996;-40
2021/09/06 08:12:08;;;;;;;25.85;15.35;;;19.00;99.90;;;18.45;80.15;102017.53;2571110;30;137357;-40
2021/09/06 08:14:38;;;;;;;28.45;16.17;;;19.20;99.90;;;18.51;79.27;102028.44;2569365;30;138564;-40
2021/09/06 08:17:06;;;;;;;27.98;15.82;;;19.20;99.90;;;18.48;77.49;102034.44;2568868;30;140581;-40
2021/09/06 08:19:36;;;;;;;24.30;15.50;;;19.30;99.90;;;18.64;78.94;102026.56;2570178;30;139316;-40
2021/09/06 08:22:04;;;;;;;24.27;14.85;;;19.40;99.90;;;18.77;80.00;102025.50;2566462;30;139023;-39
2021/09/06 08:24:33;;;;;;;28.27;14.90;;;19.50;99.90;;;18.77;74.54;102034.63;2568005;30;138979;-40
2021/09/06 08:27:01;;;;;;;24.42;14.30;;;19.50;99.90;;;18.90;74.87;102024.41;2568815;30;139668;-40
2021/09/06 08:29:28;;;;;;;;;;;19.70;99.90;;;19.05;76.58;102032.28;2567429;30;139414;-40
2021/09/06 08:31:56;;;;;;;20.60;12.77;;;19.80;99.90;;;19.22;77.18;102035.97;2570462;30;139747;-39
2021/09/06 08:34:26;;;;;;;23.10;13.90;;;19.90;99.90;;;19.35;75.16;102026.56;2570549;30;139708;-39
2021/09/06 08:36:53;;;;;;;;;;;20.10;99.90;;;19.50;75.37;102031.63;2569704;30;138171;-40
2021/09/06 08:39:21;;;;;;;22.17;13.95;;;20.10;99.90;;;19.61;74.96;102029.91;2569968;30;139899;-40
2021/09/06 08:41:51;;;;;;;24.65;14.02;;;20.30;99.90;;;19.76;74.44;102042.38;2566864;30;140628;-40
2021/09/06 08:44:18;;;;;;;20.00;12.95;;;20.40;99.90;;;19.81;72.31;102036.94;2567845;30;138589;-39
2021/09/06 08:46:46;;;;;;;27.95;13.63;;;20.50;99.90;;;19.71;71.46;102031.22;2568539;30;140105;-40
2021/09/06 08:49:16;;;;;;;23.10;13.52;;;20.50;99.90;;;19.94;71.00;102044.16;2569576;30;140049;-38
2021/09/06 08:51:44;;;;;;;;;;;20.60;99.90;;;20.12;71.24;102046.75;2569086;30;139801;-40
2021/09/06 08:54:13;;;;;;;18.10;10.63;;;20.80;99.90;;;20.19;63.47;102042.97;2566734;30;138927;-40
2021/09/06 08:56:41;;;;;;;22.42;12.65;;;20.90;99.90;;;20.25;66.88;102040.06;2566719;30;139785;-42
2021/09/06 08:59:12;;;;;;;19.52;12.05;;;21.00;99.90;;;20.39;63.71;102050.81;2565012;30;137922;-40
2021/09/06 09:01:44;;;;;;;18.75;10.68;;;21.10;99.90;;;20.54;67.90;102045.56;2568294;30;139120;-40
2021/09/06 09:04:40;;;;;;;22.48;11.85;;;21.20;99.90;;;20.59;64.02;102038.44;2568903;30;136757;-41
2021/09/06 09:07:30;;;;;;;19.00;11.27;;;21.30;99.90;;;20.65;62.75;102038.28;2568446;30;140814;-40
2021/09/06 09:10:37;;;;;;;20.63;12.10;;;21.30;99.90;;;20.72;60.68;102048.34;2567691;30;137630;-40
2021/09/06 09:13:37;;;;;;;;;;;21.40;99.90;;;20.89;62.62;102051.16;2567274;30;138048;-40
2021/09/06 09:16:25;;;;;;;17.75;10.82;;;21.60;99.90;;;20.95;58.94;102056.53;2566381;30;137067;-38
2021/09/06 09:19:11;;;;;;;18.40;10.93;;;21.60;99.90;;;21.12;62.99;102053.72;2571236;30;136948;-40
2021/09/06 09:22:08;;;;;;;16.30;10.57;;;21.80;99.90;;;21.32;62.73;102057.06;2568742;30;136817;-40
2021/09/06 09:25:08;;;;;;;18.85;10.40;;;21.90;99.90;;;21.50;58.01;102064.28;2569745;30;137460;-40
2021/09/06 09:27:56;;;;;;;18.20;10.93;;;22.10;99.90;;;21.64;58.38;102054.47;2568985;30;139196;-40
2021/09/06 09:30:41;;;;;;;22.52;13.32;;;22.20;99.90;;;21.77;63.13;102058.00;2567745;30;139560;-40
2021/09/06 09:33:16;;;;;;;23.85;13.43;;;22.30;99.90;;;21.72;63.14;102061.53;2566757;30;139651;-40
2021/09/06 09:36:34;;;;;;;22.40;13.18;;;22.40;99.90;;;21.84;65.45;102062.22;2567584;30;137922;-39
2021/09/06 09:39:22;;;;;;;23.45;13.32;;;22.50;99.90;;;21.75;61.55;102060.16;2568760;30;137336;-40
2021/09/06 09:42:03;;;;;;;22.88;13.63;;;22.60;99.90;;;21.69;61.97;102062.88;2570415;30;136734;-40
2021/09/06 09:44:47;;;;;;;19.40;12.02;;;22.60;99.90;;;21.83;62.71;102057.78;2568246;30;137355;-38
2021/09/06 09:47:33;;;;;;;21.90;12.15;;;22.60;99.90;;;21.99;62.54;102055.19;2568002;30;136878;-40
2021/09/06 09:50:01;;;;;;;22.15;13.23;;;22.70;99.90;;;21.99;62.54;102049.63;2570652;30;137603;-39
2021/09/06 09:52:29;;;;;;;20.98;11.75;;;22.80;99.90;;;22.07;61.11;102051.94;2570925;30;138298;-40
2021/09/06 09:54:58;;;;;;;18.63;10.75;;;22.80;99.90;;;21.97;59.43;102049.06;2568329;30;137081;-40
2021/09/06 09:57:26;;;;;;;;;;;22.80;99.90;;;22.01;61.76;102043.78;2565456;30;138277;-40
2021/09/06 09:59:55;;;;;;;18.48;10.40;;;22.90;99.90;;;22.24;59.39;102057.38;2570606;30;137198;-40
2021/09/06 10:02:27;;;;;;;16.65;9.95;;;22.90;99.90;;;22.44;59.33;102044.81;2569048;30;138322;-40
2021/09/06 10:05:05;;;;;;;17.88;10.43;;;23.00;99.90;;;22.55;57.98;102048.56;2566694;30;136732;-40
2021/09/06 10:07:44;;;;;;;18.67;11.27;;;;;;;22.74;55.06;102048.16;2567488;30;137486;-38
2021/09/06 10:10:22;;;;;;;17.30;10.18;;;;;;;22.84;57.75;102051.00;2565339;30;136914;-40
2021/09/06 10:13:05;;;;;;;15.77;9.50;;;23.10;99.90;;;23.05;56.58;102040.84;2567907;30;137733;-39
2021/09/06 10:15:39;;;;;;;17.45;10.25;;;23.60;99.90;;;23.26;52.66;102052.16;2568909;30;137015;-40
2021/09/06 10:18:22;;;;;;;19.42;11.10;;;23.80;99.90;;;23.39;52.10;102043.34;2569008;30;138226;-40
2021/09/06 10:20:52;;;;;;;21.45;12.10;;;;;;;23.56;52.21;102045.94;2567235;30;138383;-40